Texas General Land Office
 Texas General Land Office
 George P. Bush, Commissioner

 Oil Spill Prevention
 & Response

Texas Automated Buoy System
Real Time Ocean Observations
Supporting Oil Spill Prevention and
Response since 1995
Geochemical and Environmental Research Group

NOAA - NDBC Buoy 42035 -- Texas Automated Buoy System

NBDC Buoy 42035
Galveston
Conditions at 03/21/2019 23:50 UTC (03/21/2019 18:50 CDT)
29° 14.7830'N   94° 24.5000'W
22NM East of Galveston, TX
Anemometer height: 5m
Water Depth: 52 feet (16 meters)
Wind: 5.0 m/s (9.7 kts)
          From 190°T (S)
Wind Gust: 6.00 m/s (11.7 kts) Pressure: 1021.3 mb (30.16 inHg)
Air Temp: 18°C (65 °F) Dewpoint: 8°C (47°F) Relative Humidity: 53%
Sea Surf Temp: 18 °C (64 °F) Wave Height: 0.3m (1.0 ft) Wave Period: 7
  


IMPORTANT: Notice to Mariners


Today's Velocity Data

  Buoy     Date      Time     East   North   Speed  Dir(°T) Wave Ht WvPer  Num
|  ID  |          |  (UTC) | (m/s) | (m/s) | (m/s) |(FROM) |  (m)  | secs| pts |
+======+==========+========+=======+=======+=======+=======+=======+=====+=====+
  42035 03/18/2019 00:10:00    3.83    3.21    5.00      50     0.0     0     1
  42035 03/18/2019 00:20:00    3.83    3.21    5.00      50     0.7     5     1
  42035 03/18/2019 00:30:00    4.33    2.50    5.00      60     0.0     0     1
  42035 03/18/2019 00:40:00    4.70    1.71    5.00      70     0.0     0     1
  42035 03/18/2019 00:50:00    3.46    2.00    4.00      60     0.0     0     1
  42035 03/18/2019 06:00:00    3.31    1.79    3.77      62     0.1     1    31
  42035 03/18/2019 06:10:00    2.57    3.06    4.00      40     0.0     0     1
  42035 03/18/2019 06:20:00    3.21    3.83    5.00      40     0.6     5     1
  42035 03/18/2019 06:30:00    3.86    4.60    6.00      40     0.0     0     1
  42035 03/18/2019 06:40:00    4.60    3.86    6.00      50     0.0     0     1
  42035 03/18/2019 06:50:00    4.60    3.86    6.00      50     0.0     0     1
  42035 03/18/2019 12:00:00    4.03    4.01    5.69      45     0.1     1    31
  42035 03/18/2019 12:10:00    4.50    5.36    7.00      40     0.0     0     1
  42035 03/18/2019 12:20:00    4.50    5.36    7.00      40     0.6     5     1
  42035 03/18/2019 12:30:00    4.50    5.36    7.00      40     0.0     0     1
  42035 03/18/2019 12:40:00    4.50    5.36    7.00      40     0.0     0     1
  42035 03/18/2019 12:50:00    4.50    5.36    7.00      40     0.0     0     1
  42035 03/18/2019 18:00:00    5.96    4.07    7.22      56     0.1     0    31
  42035 03/18/2019 18:10:00    7.52    2.74    8.00      70     0.0     0     1
  42035 03/18/2019 18:20:00    7.52    2.74    8.00      70     0.9     5     1
  42035 03/18/2019 18:30:00    7.52    2.74    8.00      70     0.0     0     1
  42035 03/18/2019 18:40:00    7.52    2.74    8.00      70     0.0     0     1
  42035 03/18/2019 18:50:00    7.52    2.74    8.00      70     0.0     0     1
  42035 03/19/2019 00:00:00    7.46    2.57    7.89      71     0.2     1    31
  42035 03/19/2019 00:10:00    7.52    2.74    8.00      70     1.2     0     1
  42035 03/19/2019 00:20:00    7.52    2.74    8.00      70     1.2     6     1
  42035 03/19/2019 00:30:00    7.52    2.74    8.00      70     0.0     0     1
  42035 03/19/2019 00:40:00    8.46    3.08    9.00      70     0.0     0     1
  42035 03/19/2019 00:50:00    8.86    1.56    9.00      80     0.0     0     1
  42035 03/19/2019 06:00:00    7.80    1.55    7.95      79     0.3     1    31
  42035 03/19/2019 06:10:00    7.00    0.00    7.00      90     1.2     0     1
  42035 03/19/2019 06:20:00    7.00    0.00    7.00      90     1.2     6     1
  42035 03/19/2019 06:30:00    6.89    1.22    7.00      80     0.0     0     1
  42035 03/19/2019 06:40:00    7.00    0.00    7.00      90     0.0     0     1
  42035 03/19/2019 06:50:00    7.00    0.00    7.00      90     0.0     0     1
  42035 03/19/2019 12:00:00    9.75    1.42    9.85      82     0.3     1    31
  42035 03/19/2019 12:10:00    6.89    1.22    7.00      80     0.0     0     1
  42035 03/19/2019 12:20:00    6.89    1.22    7.00      80     1.0     6     1
  42035 03/19/2019 12:30:00    6.89    1.22    7.00      80     0.0     0     1
  42035 03/19/2019 12:40:00    6.58    2.39    7.00      70     0.0     0     1
  42035 03/19/2019 12:50:00    6.89    1.22    7.00      80     0.0     0     1
  42035 03/19/2019 18:00:00    7.51    1.59    7.67      78     0.2     1    30
  42035 03/19/2019 18:10:00    8.86    1.56    9.00      80     0.0     0     1
  42035 03/19/2019 18:20:00    8.00    0.00    8.00      90     1.2     6     1
  42035 03/19/2019 18:30:00    7.88    1.39    8.00      80     0.0     0     1
  42035 03/19/2019 18:40:00    7.88    1.39    8.00      80     0.0     0     1
  42035 03/19/2019 18:50:00    7.00    0.00    7.00      90     0.0     0     1
  42035 03/20/2019 00:00:00    7.33    0.64    7.36      85     0.3     1    31
  42035 03/20/2019 00:10:00    5.91   -1.04    6.00     100     0.9     0     1
  42035 03/20/2019 00:20:00    5.91   -1.04    6.00     100     0.9     8     1
  42035 03/20/2019 00:30:00    5.91   -1.04    6.00     100     0.0     0     1
  42035 03/20/2019 00:40:00    5.91   -1.04    6.00     100     0.0     0     1
  42035 03/20/2019 00:50:00    5.91   -1.04    6.00     100     0.0     0     1
  42035 03/20/2019 06:00:00    3.52   -2.25    4.17     123     0.1     1    31
  42035 03/20/2019 06:10:00    2.60   -1.50    3.00     120     0.8     0     1
  42035 03/20/2019 06:20:00    2.60   -1.50    3.00     120     0.8     8     1
  42035 03/20/2019 06:30:00    2.60   -1.50    3.00     120     0.0     0     1
  42035 03/20/2019 06:40:00    3.76   -1.37    4.00     110     0.0     0     1
  42035 03/20/2019 06:50:00    3.76   -1.37    4.00     110     0.0     0     1
  42035 03/20/2019 12:00:00    2.55    0.30    2.57      83     0.2     1    31
  42035 03/20/2019 12:10:00    2.57    3.06    4.00      40     0.0     0     1
  42035 03/20/2019 12:20:00    3.21    3.83    5.00      40     0.6     8     1
  42035 03/20/2019 12:30:00    3.21    3.83    5.00      40     0.0     0     1
  42035 03/20/2019 12:40:00    2.50    4.33    5.00      30     0.0     0     1
  42035 03/20/2019 12:50:00    3.21    3.83    5.00      40     0.0     0     1
  42035 03/20/2019 18:00:00    2.98    3.57    4.65      40     0.1     1    31
  42035 03/20/2019 18:10:00    1.93    2.30    3.00      40     0.0     0     1
  42035 03/20/2019 18:20:00    2.30    1.93    3.00      50     0.5     8     1
  42035 03/20/2019 18:30:00    2.30    1.93    3.00      50     0.0     0     1
  42035 03/20/2019 18:40:00    1.73    1.00    2.00      60     0.0     0     1
  42035 03/20/2019 18:50:00    1.88    0.68    2.00      70     0.0     0     1
  42035 03/21/2019 00:00:00    0.20   -2.06    2.07     174     0.1     1    31
  42035 03/21/2019 00:10:00   -2.00   -3.46    4.00     210     0.5     0     1
  42035 03/21/2019 00:20:00   -2.00   -3.46    4.00     210     0.5     8     1
  42035 03/21/2019 00:30:00   -1.37   -3.76    4.00     200     0.0     0     1
  42035 03/21/2019 00:40:00   -1.71   -4.70    5.00     200     0.0     0     1
  42035 03/21/2019 00:50:00   -1.71   -4.70    5.00     200     0.0     0     1
  42035 03/21/2019 06:00:00   -2.27   -2.85    3.64     218     0.1     1    31
  42035 03/21/2019 06:20:00   -2.95    0.52    3.00     280     0.0     0     1
  42035 03/21/2019 06:30:00   -3.94    0.69    4.00     280     0.4     7     1
  42035 03/21/2019 06:40:00   -3.94    0.69    4.00     280     0.0     0     1
  42035 03/21/2019 06:50:00   -3.94    0.69    4.00     280     0.0     0     1
  42035 03/21/2019 12:00:00   -1.08    4.48    4.61     346     0.1     1    31
  42035 03/21/2019 12:10:00    3.21    3.83    5.00      40     0.0     0     1
  42035 03/21/2019 12:20:00    3.21    3.83    5.00      40     0.5     3     1
  42035 03/21/2019 12:30:00    3.21    3.83    5.00      40     0.0     0     1
  42035 03/21/2019 12:40:00    3.21    3.83    5.00      40     0.0     0     1
  42035 03/21/2019 12:50:00    3.86    4.60    6.00      40     0.0     0     1
  42035 03/21/2019 18:00:00    2.94    2.05    3.59      55     0.1     1    31
  42035 03/21/2019 18:10:00    0.98   -0.17    1.00     100     0.0     0     1
  42035 03/21/2019 18:20:00    0.94   -0.34    1.00     110     0.3     8     1
  42035 03/21/2019 18:30:00    0.94   -0.34    1.00     110     0.0     0     1
  42035 03/21/2019 18:40:00    0.77   -0.64    1.00     130     0.0     0     1
  42035 03/21/2019 18:50:00   97.78   15.49   99.00      81     0.0     0     1